createdAt,value
2022-09-13T00:01:24.922Z,4.05
2022-09-13T00:03:27.033Z,4.50
2022-09-13T00:05:29.368Z,3.80
2022-09-13T00:07:30.949Z,4.28
2022-09-13T00:09:32.738Z,3.65
2022-09-13T00:11:34.559Z,3.65
2022-09-13T00:13:36.139Z,4.13
2022-09-13T00:15:45.729Z,3.95
2022-09-13T00:17:47.805Z,3.95
2022-09-13T00:19:49.535Z,4.53
2022-09-13T00:21:51.077Z,4.38
2022-09-13T00:23:54.768Z,4.30
2022-09-13T00:26:05.114Z,4.68
2022-09-13T00:28:07.120Z,3.95
2022-09-13T00:30:09.530Z,4.15
2022-09-13T00:32:11.353Z,4.47
2022-09-13T00:34:12.951Z,4.45
2022-09-13T00:36:18.448Z,4.28
2022-09-13T00:38:20.056Z,4.63
2022-09-13T00:40:22.609Z,5.00
2022-09-13T00:42:35.332Z,4.07
2022-09-13T00:44:58.260Z,4.35
2022-09-13T00:47:01.149Z,4.97
2022-09-13T00:49:32.022Z,4.22
2022-09-13T00:51:33.568Z,4.97
2022-09-13T00:53:40.167Z,4.03
2022-09-13T00:55:48.618Z,4.07
2022-09-13T00:57:51.249Z,4.50
2022-09-13T01:00:14.252Z,4.60
2022-09-13T01:02:15.931Z,4.25
2022-09-13T01:04:20.977Z,4.65
2022-09-13T01:06:29.419Z,4.70
2022-09-13T01:08:32.758Z,4.70
2022-09-13T01:10:38.718Z,4.38
2022-09-13T01:12:50.942Z,4.30
2022-09-13T01:14:57.536Z,4.60
2022-09-13T01:16:59.359Z,4.70
2022-09-13T01:19:00.968Z,3.60
2022-09-13T01:21:17.779Z,4.30
2022-09-13T01:23:41.151Z,4.60
2022-09-13T01:26:01.216Z,3.97
2022-09-13T01:28:21.386Z,4.15
2022-09-13T01:30:24.790Z,4.43
2022-09-13T01:32:29.082Z,4.60
2022-09-13T01:35:19.208Z,4.13
2022-09-13T01:37:34.001Z,4.38
2022-09-13T01:40:17.988Z,4.65
2022-09-13T01:42:35.709Z,4.32
2022-09-13T01:45:03.485Z,4.05
2022-09-13T01:47:19.016Z,4.10
2022-09-13T01:49:46.369Z,4.60
2022-09-13T01:52:35.357Z,4.40
2022-09-13T01:54:54.186Z,4.35
2022-09-13T01:57:15.059Z,4.82
2022-09-13T01:59:22.320Z,4.50
2022-09-13T02:01:33.801Z,4.47
2022-09-13T02:03:50.196Z,4.53
2022-09-13T02:06:08.616Z,4.53
2022-09-13T02:08:15.701Z,3.92
2022-09-13T02:10:48.870Z,4.20
2022-09-13T02:12:52.998Z,4.43
2022-09-13T02:15:02.362Z,4.00
2022-09-13T02:17:18.335Z,4.32
2022-09-13T02:19:25.523Z,3.83
2022-09-13T02:21:32.752Z,4.30
2022-09-13T02:23:41.630Z,4.30
2022-09-13T02:25:46.236Z,4.00
2022-09-13T02:27:54.019Z,3.78
2022-09-13T02:30:00.829Z,3.75
2022-09-13T02:32:24.662Z,4.50
2022-09-13T02:34:42.111Z,4.70
2022-09-13T02:36:49.330Z,3.80
2022-09-13T02:38:56.771Z,3.88
2022-09-13T02:41:09.956Z,4.00
2022-09-13T02:43:20.371Z,4.28
2022-09-13T02:45:27.386Z,4.53
2022-09-13T02:47:54.606Z,4.35
2022-09-13T02:50:27.766Z,3.95
2022-09-13T02:52:35.327Z,3.90
2022-09-13T02:54:57.083Z,4.70
2022-09-13T02:57:39.278Z,3.88
2022-09-13T02:59:40.922Z,3.90
2022-09-13T03:01:49.459Z,4.10
2022-09-13T03:03:54.322Z,4.00
2022-09-13T03:05:56.006Z,4.60
2022-09-13T03:07:59.237Z,4.32
2022-09-13T03:10:08.981Z,4.60
2022-09-13T03:12:19.627Z,4.03
2022-09-13T03:14:27.286Z,4.10
2022-09-13T03:16:51.461Z,3.88
2022-09-13T03:19:35.535Z,4.18
2022-09-13T03:22:05.163Z,4.18
2022-09-13T03:24:25.591Z,4.00
2022-09-13T03:26:52.184Z,3.80
2022-09-13T03:29:09.245Z,4.25
2022-09-13T03:31:21.063Z,4.18
2022-09-13T03:33:37.764Z,3.95
2022-09-13T03:35:44.667Z,3.97
2022-09-13T03:37:53.844Z,4.15
2022-09-13T03:40:12.333Z,3.70
2022-09-13T03:42:40.276Z,4.05
2022-09-13T03:44:46.087Z,4.10
2022-09-13T03:46:54.734Z,3.72
2022-09-13T03:48:58.574Z,4.28
2022-09-13T03:51:01.205Z,4.32
2022-09-13T03:53:08.970Z,4.72
2022-09-13T03:55:10.658Z,3.70
2022-09-13T03:57:16.707Z,4.00
2022-09-13T03:59:18.615Z,4.60
2022-09-13T04:01:23.469Z,3.58
2022-09-13T04:03:25.127Z,3.75
2022-09-13T04:05:27.053Z,3.85
2022-09-13T04:07:28.824Z,3.95
2022-09-13T04:09:31.590Z,3.63
2022-09-13T04:11:33.305Z,3.70
2022-09-13T04:13:36.327Z,4.10
2022-09-13T04:15:37.879Z,4.07
2022-09-13T04:17:39.592Z,4.30
2022-09-13T04:19:41.712Z,4.50
2022-09-13T04:21:43.450Z,4.20
2022-09-13T04:23:50.459Z,3.70
2022-09-13T04:25:52.106Z,4.07
2022-09-13T04:27:55.809Z,3.88
2022-09-13T04:29:57.450Z,4.53
2022-09-13T04:32:02.210Z,3.58
2022-09-13T04:34:03.854Z,3.95
2022-09-13T04:36:05.546Z,4.00
2022-09-13T04:38:11.269Z,3.97
2022-09-13T04:40:14.101Z,4.20
2022-09-13T04:42:15.955Z,3.88
2022-09-13T04:44:18.532Z,3.95
2022-09-13T04:46:20.251Z,3.65
2022-09-13T04:48:21.814Z,4.50
2022-09-13T04:50:25.610Z,3.75
2022-09-13T04:52:27.748Z,4.10
2022-09-13T04:54:29.691Z,4.22
2022-09-13T04:56:31.438Z,3.75
2022-09-13T04:58:33.572Z,4.60
2022-09-13T05:00:35.646Z,4.07
2022-09-13T05:02:37.530Z,4.00
2022-09-13T05:04:39.072Z,3.90
2022-09-13T05:06:40.695Z,4.22
2022-09-13T05:08:42.448Z,4.10
2022-09-13T05:10:46.694Z,3.92
2022-09-13T05:12:48.817Z,3.58
2022-09-13T05:14:50.538Z,3.95
2022-09-13T05:16:52.133Z,3.85
2022-09-13T05:18:54.254Z,4.22
2022-09-13T05:20:57.604Z,4.35
2022-09-13T05:22:59.337Z,4.07
2022-09-13T05:25:00.915Z,3.83
2022-09-13T05:27:02.623Z,4.18
2022-09-13T05:29:04.645Z,4.50
2022-09-13T05:31:13.013Z,4.60
2022-09-13T05:33:14.765Z,4.88
2022-09-13T05:35:16.788Z,4.45
2022-09-13T05:37:18.503Z,4.57
2022-09-13T05:39:43.765Z,4.80
2022-09-13T05:41:47.615Z,5.00
2022-09-13T05:43:54.155Z,3.92
2022-09-13T05:46:04.155Z,4.13
2022-09-13T05:48:05.881Z,4.10
2022-09-13T05:50:10.699Z,4.65
2022-09-13T05:52:15.324Z,4.82
2022-09-13T05:54:20.190Z,4.00
2022-09-13T05:56:24.099Z,4.18
2022-09-13T05:58:26.458Z,4.72
2022-09-13T06:00:28.164Z,4.32
2022-09-13T06:02:31.715Z,4.10
2022-09-13T06:04:35.671Z,4.20
2022-09-13T06:06:37.321Z,4.38
2022-09-13T06:08:42.159Z,3.67
2022-09-13T06:10:43.820Z,3.92
2022-09-13T06:12:45.343Z,3.72
2022-09-13T06:14:46.848Z,3.95
2022-09-13T06:16:51.217Z,3.88
2022-09-13T06:18:52.793Z,3.78
2022-09-13T06:21:03.116Z,3.97
2022-09-13T06:23:04.919Z,3.90
2022-09-13T06:25:06.907Z,3.90
2022-09-13T06:27:10.329Z,3.42
2022-09-13T06:29:12.734Z,4.03
2022-09-13T06:31:15.848Z,3.45
2022-09-13T06:33:18.052Z,3.83
2022-09-13T06:35:19.416Z,3.65
2022-09-13T06:37:22.092Z,3.70
2022-09-13T06:39:23.617Z,3.65
2022-09-13T06:41:29.745Z,3.83
2022-09-13T06:43:32.439Z,4.13
2022-09-13T06:45:34.017Z,3.90
2022-09-13T06:47:35.862Z,4.03
2022-09-13T06:49:40.168Z,4.18
2022-09-13T06:51:41.960Z,3.88
2022-09-13T06:53:45.020Z,3.78
2022-09-13T06:55:49.554Z,4.15
2022-09-13T06:57:51.085Z,3.92
2022-09-13T06:59:55.490Z,4.43
2022-09-13T07:01:57.235Z,3.60
2022-09-13T07:04:09.183Z,3.83
2022-09-13T07:06:22.579Z,4.30
2022-09-13T07:08:27.365Z,4.50
2022-09-13T07:10:28.868Z,4.00
2022-09-13T07:12:39.935Z,3.72
2022-09-13T07:14:41.675Z,3.72
2022-09-13T07:16:43.620Z,3.65
2022-09-13T07:18:45.908Z,3.72
2022-09-13T07:21:00.361Z,3.90
2022-09-13T07:23:02.064Z,3.72
2022-09-13T07:25:04.511Z,3.95
2022-09-13T07:27:06.291Z,3.92
2022-09-13T07:29:11.612Z,3.20
2022-09-13T07:31:20.649Z,3.92
2022-09-13T07:33:26.204Z,3.75
2022-09-13T07:35:27.788Z,3.53
2022-09-13T07:37:29.400Z,4.15
2022-09-13T07:39:31.205Z,3.30
2022-09-13T07:41:33.760Z,3.63
2022-09-13T07:43:38.293Z,3.53
2022-09-13T07:45:40.326Z,3.45
2022-09-13T07:47:42.662Z,3.53
2022-09-13T07:49:45.994Z,3.80
2022-09-13T07:51:51.413Z,3.17
2022-09-13T07:53:58.629Z,3.78
2022-09-13T07:56:15.565Z,3.28
2022-09-13T07:58:17.082Z,3.15
2022-09-13T08:00:18.777Z,3.50
2022-09-13T08:02:20.402Z,3.75
2022-09-13T08:04:33.350Z,3.42
2022-09-13T08:06:38.965Z,3.05
2022-09-13T08:08:40.511Z,3.63
2022-09-13T08:10:49.266Z,4.00
2022-09-13T08:12:51.162Z,3.60
2022-09-13T08:14:53.080Z,3.60
2022-09-13T08:16:57.847Z,3.47
2022-09-13T08:19:02.146Z,3.20
2022-09-13T08:21:06.122Z,3.08
2022-09-13T08:23:09.414Z,3.25
2022-09-13T08:25:11.356Z,3.63
2022-09-13T08:27:13.683Z,3.85
2022-09-13T08:29:15.986Z,3.47
2022-09-13T08:31:22.654Z,3.85
2022-09-13T08:33:24.203Z,3.22
2022-09-13T08:35:27.488Z,3.28
2022-09-13T08:37:29.113Z,3.63
2022-09-13T08:39:33.441Z,3.67
2022-09-13T08:41:42.170Z,3.75
2022-09-13T08:44:09.193Z,3.38
2022-09-13T08:46:10.790Z,3.70
2022-09-13T08:48:16.405Z,3.17
2022-09-13T08:50:28.976Z,3.50
2022-09-13T08:52:36.501Z,3.47
2022-09-13T08:54:43.340Z,3.85
2022-09-13T08:56:48.602Z,3.60
2022-09-13T08:59:02.782Z,3.38
2022-09-13T09:01:26.182Z,3.30
2022-09-13T09:03:47.972Z,4.68
2022-09-13T09:05:52.786Z,4.93
2022-09-13T09:08:13.453Z,5.22
2022-09-13T09:10:28.403Z,4.93
2022-09-13T09:12:47.143Z,4.32
2022-09-13T09:15:08.770Z,4.50
2022-09-13T09:17:42.715Z,4.85
2022-09-13T09:19:51.956Z,4.50
2022-09-13T09:21:59.348Z,4.50
2022-09-13T09:24:11.887Z,3.83
2022-09-13T09:26:20.185Z,3.83
2022-09-13T09:28:27.723Z,3.60
2022-09-13T09:30:43.966Z,4.00
2022-09-13T09:33:00.635Z,3.15
2022-09-13T09:35:23.426Z,3.17
2022-09-13T09:37:28.050Z,3.47
2022-09-13T09:39:36.137Z,3.90
2022-09-13T09:41:38.492Z,3.58
2022-09-13T09:43:52.626Z,3.92
2022-09-13T09:46:00.990Z,3.30
2022-09-13T09:48:11.636Z,3.40
2022-09-13T09:50:47.564Z,3.53
2022-09-13T09:52:59.144Z,3.53
2022-09-13T09:55:11.069Z,3.08
2022-09-13T09:57:13.378Z,3.40
2022-09-13T09:59:28.614Z,3.08
2022-09-13T10:01:33.161Z,3.00
2022-09-13T10:03:35.809Z,3.28
2022-09-13T10:05:37.727Z,2.83
2022-09-13T10:07:43.746Z,3.00
2022-09-13T10:09:59.344Z,3.17
2022-09-13T10:12:01.561Z,3.25
2022-09-13T10:14:03.833Z,2.75
2022-09-13T10:16:22.158Z,2.78
2022-09-13T10:18:43.297Z,2.90
2022-09-13T10:21:07.661Z,3.03
2022-09-13T10:23:18.846Z,2.90
2022-09-13T10:25:26.142Z,3.15
2022-09-13T10:27:33.025Z,3.03
2022-09-13T10:29:34.588Z,3.00
2022-09-13T10:31:39.043Z,3.20
2022-09-13T10:33:49.886Z,3.28
2022-09-13T10:35:55.307Z,3.05
2022-09-13T10:37:56.998Z,2.90
2022-09-13T10:39:58.533Z,2.90
2022-09-13T10:42:07.204Z,2.90
2022-09-13T10:44:47.868Z,3.15
2022-09-13T10:46:50.318Z,2.80
2022-09-13T10:49:09.891Z,2.70
2022-09-13T10:51:35.844Z,2.30
2022-09-13T10:53:42.949Z,2.50
2022-09-13T10:55:54.108Z,2.53
2022-09-13T10:58:13.722Z,2.90
2022-09-13T11:00:22.459Z,2.60
2022-09-13T11:02:28.860Z,2.38
2022-09-13T11:04:39.299Z,2.58
2022-09-13T11:07:02.055Z,2.50
2022-09-13T11:09:21.410Z,2.55
2022-09-13T11:11:29.698Z,2.60
2022-09-13T11:13:56.815Z,2.83
2022-09-13T11:16:16.460Z,2.80
2022-09-13T11:18:59.872Z,2.65
2022-09-13T11:21:13.579Z,2.78
2022-09-13T11:23:30.160Z,2.60
2022-09-13T11:25:52.265Z,2.70
2022-09-13T11:28:05.949Z,2.70
2022-09-13T11:30:11.618Z,3.22
2022-09-13T11:32:52.682Z,2.53
2022-09-13T11:35:19.272Z,2.85
2022-09-13T11:37:51.544Z,2.50
2022-09-13T11:40:28.278Z,2.47
2022-09-13T11:42:50.738Z,2.60
2022-09-13T11:45:24.245Z,2.85
2022-09-13T11:47:46.825Z,2.83
2022-09-13T11:50:23.296Z,2.53
2022-09-13T11:52:33.623Z,2.55
2022-09-13T11:54:53.846Z,2.83
2022-09-13T11:57:19.782Z,2.70
2022-09-13T11:59:34.616Z,2.95
2022-09-13T12:01:45.970Z,2.80
2022-09-13T12:03:54.672Z,3.05
2022-09-13T12:06:07.858Z,2.80
2022-09-13T12:08:09.955Z,2.90
2022-09-13T12:10:37.852Z,2.83
2022-09-13T12:12:41.481Z,3.20
2022-09-13T12:14:59.775Z,2.80
2022-09-13T12:17:06.675Z,2.92
2022-09-13T12:19:23.589Z,2.67
2022-09-13T12:21:32.201Z,2.60
2022-09-13T12:23:37.975Z,2.70
2022-09-13T12:26:00.818Z,2.72
2022-09-13T12:28:44.663Z,2.80
2022-09-13T12:30:56.454Z,2.83
2022-09-13T12:32:59.087Z,2.70
2022-09-13T12:35:06.897Z,2.70
2022-09-13T12:37:44.185Z,3.03
2022-09-13T12:40:00.382Z,2.90
2022-09-13T12:42:41.162Z,2.83
2022-09-13T12:45:20.656Z,2.83
2022-09-13T12:47:45.158Z,3.22
2022-09-13T12:49:52.577Z,2.78
2022-09-13T12:52:13.172Z,2.80
2022-09-13T12:54:23.985Z,2.90
2022-09-13T12:56:44.414Z,2.80
2022-09-13T12:58:54.869Z,2.55
2022-09-13T13:01:24.204Z,2.65
2022-09-13T13:03:31.460Z,2.65
2022-09-13T13:05:38.842Z,2.72
2022-09-13T13:07:46.457Z,2.50
2022-09-13T13:09:53.730Z,2.42
2022-09-13T13:11:58.447Z,2.80
2022-09-13T13:14:09.411Z,2.70
2022-09-13T13:16:37.870Z,2.67
2022-09-13T13:18:48.882Z,2.50
2022-09-13T13:20:56.511Z,2.33
2022-09-13T13:23:23.497Z,2.47
2022-09-13T13:25:39.215Z,2.90
2022-09-13T13:27:48.043Z,2.38
2022-09-13T13:30:28.504Z,2.70
2022-09-13T13:32:30.035Z,2.33
2022-09-13T13:34:31.802Z,2.80
2022-09-13T13:36:39.367Z,2.60
2022-09-13T13:38:48.330Z,2.30
2022-09-13T13:40:53.117Z,2.42
2022-09-13T13:43:35.310Z,2.50
2022-09-13T13:45:37.033Z,2.75
2022-09-13T13:47:53.707Z,2.22
2022-09-13T13:50:18.069Z,2.70
2022-09-13T13:52:22.660Z,2.40
2022-09-13T13:54:54.992Z,2.42
2022-09-13T13:56:57.844Z,2.10
2022-09-13T13:59:31.051Z,2.28
2022-09-13T14:01:39.217Z,2.40
2022-09-13T14:03:49.803Z,2.30
2022-09-13T14:06:07.244Z,2.20
2022-09-13T14:09:03.423Z,2.35
2022-09-13T14:11:15.259Z,2.60
2022-09-13T14:13:39.431Z,2.85
2022-09-13T14:16:09.120Z,2.28
2022-09-13T14:18:25.745Z,2.10
2022-09-13T14:20:27.310Z,1.90
2022-09-13T14:22:29.405Z,2.00
2022-09-13T14:24:37.359Z,2.00
2022-09-13T14:26:40.234Z,2.15
2022-09-13T14:28:43.316Z,1.80
2022-09-13T14:30:46.782Z,1.90
2022-09-13T14:32:52.215Z,1.90
2022-09-13T14:35:02.285Z,1.85
2022-09-13T14:37:11.961Z,1.95
2022-09-13T14:39:35.168Z,2.00
2022-09-13T14:41:38.882Z,1.90
2022-09-13T14:43:41.246Z,1.70
2022-09-13T14:45:46.600Z,2.10
2022-09-13T14:48:00.529Z,1.80
2022-09-13T14:50:12.714Z,2.03
2022-09-13T14:52:28.554Z,1.77
2022-09-13T14:54:44.306Z,1.88
2022-09-13T14:56:55.615Z,1.67
2022-09-13T14:59:03.130Z,1.83
2022-09-13T15:01:09.016Z,2.20
2022-09-13T15:03:16.953Z,1.90
2022-09-13T15:05:22.770Z,1.70
2022-09-13T15:07:31.960Z,1.95
2022-09-13T15:09:37.605Z,1.77
2022-09-13T15:11:43.754Z,1.98
2022-09-13T15:13:45.349Z,1.92
2022-09-13T15:15:47.712Z,1.55
2022-09-13T15:18:13.679Z,1.95
2022-09-13T15:20:15.634Z,2.03
2022-09-13T15:22:18.233Z,2.00
2022-09-13T15:24:32.258Z,2.00
2022-09-13T15:26:40.539Z,3.03
2022-09-13T15:28:45.181Z,3.80
2022-09-13T15:30:46.903Z,5.13
2022-09-13T15:32:48.453Z,5.80
2022-09-13T15:34:51.251Z,7.35
2022-09-13T15:37:09.767Z,6.55
2022-09-13T15:39:20.820Z,6.78
2022-09-13T15:41:28.707Z,8.10
2022-09-13T15:43:31.376Z,9.13
2022-09-13T15:45:32.972Z,8.57
2022-09-13T15:47:34.513Z,7.75
2022-09-13T15:49:39.319Z,7.32
2022-09-13T15:51:42.803Z,6.40
2022-09-13T15:53:46.398Z,5.93
2022-09-13T15:55:50.051Z,4.88
2022-09-13T15:57:51.752Z,5.45
2022-09-13T15:59:54.411Z,4.90
2022-09-13T16:01:56.821Z,3.95
2022-09-13T16:03:58.858Z,3.58
2022-09-13T16:06:02.097Z,3.40
2022-09-13T16:08:03.885Z,2.97
2022-09-13T16:10:28.801Z,3.30
2022-09-13T16:12:32.211Z,2.97
2022-09-13T16:14:34.312Z,3.25
2022-09-13T16:16:36.149Z,3.55
2022-09-13T16:18:41.906Z,3.85
2022-09-13T16:20:44.842Z,3.38
2022-09-13T16:22:46.289Z,2.95
2022-09-13T16:24:47.801Z,3.00
2022-09-13T16:26:49.516Z,3.00
2022-09-13T16:28:51.264Z,2.55
2022-09-13T16:30:53.841Z,2.40
2022-09-13T16:32:55.707Z,2.33
2022-09-13T16:34:57.888Z,2.38
2022-09-13T16:36:59.694Z,2.42
2022-09-13T16:39:01.753Z,2.15
2022-09-13T16:41:06.852Z,2.63
2022-09-13T16:43:09.696Z,2.50
2022-09-13T16:45:12.659Z,2.42
2022-09-13T16:47:14.659Z,2.67
2022-09-13T16:49:16.486Z,2.78
2022-09-13T16:51:21.584Z,2.58
2022-09-13T16:53:23.372Z,2.58
2022-09-13T16:55:27.965Z,2.50
2022-09-13T16:57:29.913Z,2.60
2022-09-13T16:59:32.869Z,2.30
2022-09-13T17:01:34.814Z,2.35
2022-09-13T17:03:37.936Z,2.53
2022-09-13T17:05:39.598Z,2.45
2022-09-13T17:07:46.743Z,2.55
2022-09-13T17:09:48.459Z,2.20
2022-09-13T17:11:50.314Z,2.05
2022-09-13T17:13:52.368Z,2.30
2022-09-13T17:15:56.649Z,2.20
2022-09-13T17:17:58.395Z,2.20
2022-09-13T17:20:00.777Z,2.40
2022-09-13T17:22:06.042Z,2.47
2022-09-13T17:24:13.119Z,2.40
2022-09-13T17:26:15.107Z,2.67
2022-09-13T17:28:17.221Z,2.67
2022-09-13T17:30:18.989Z,2.63
2022-09-13T17:32:20.868Z,2.65
2022-09-13T17:34:22.425Z,2.80
2022-09-13T17:36:24.774Z,2.83
2022-09-13T17:38:26.271Z,2.90
2022-09-13T17:40:29.137Z,2.63
2022-09-13T17:42:30.826Z,2.70
2022-09-13T17:44:32.448Z,2.80
2022-09-13T17:46:34.309Z,2.47
2022-09-13T17:48:36.030Z,2.70
2022-09-13T17:50:37.879Z,2.70
2022-09-13T17:52:41.751Z,2.63
2022-09-13T17:54:43.723Z,2.80
2022-09-13T17:56:45.312Z,2.88
2022-09-13T17:58:48.463Z,2.78
2022-09-13T18:00:50.126Z,3.20
2022-09-13T18:02:51.942Z,2.80
2022-09-13T18:04:57.134Z,2.72
2022-09-13T18:06:59.574Z,2.83
2022-09-13T18:09:02.858Z,2.88
2022-09-13T18:11:13.777Z,3.28
2022-09-13T18:13:15.998Z,3.13
2022-09-13T18:15:17.665Z,2.95
2022-09-13T18:17:19.295Z,3.22
2022-09-13T18:19:44.365Z,3.60
2022-09-13T18:21:46.036Z,3.08
2022-09-13T18:23:50.576Z,3.72
2022-09-13T18:26:10.866Z,3.97
2022-09-13T18:28:12.515Z,3.80
2022-09-13T18:30:16.552Z,3.80
2022-09-13T18:32:18.209Z,4.68
2022-09-13T18:34:23.624Z,4.28
2022-09-13T18:36:29.032Z,3.65
2022-09-13T18:38:35.353Z,5.65
2022-09-13T18:40:38.562Z,3.65
2022-09-13T18:42:41.007Z,3.53
2022-09-13T18:44:42.807Z,3.78
2022-09-13T18:46:44.648Z,3.72
2022-09-13T18:48:48.753Z,3.80
2022-09-13T18:50:50.600Z,3.47
2022-09-13T18:52:52.208Z,3.60
2022-09-13T18:54:53.949Z,3.40
2022-09-13T18:56:57.588Z,3.67
2022-09-13T18:59:01.273Z,3.88
2022-09-13T19:01:09.395Z,3.88
2022-09-13T19:03:12.873Z,3.35
2022-09-13T19:05:14.928Z,4.13
2022-09-13T19:07:16.717Z,3.83
2022-09-13T19:09:20.865Z,4.07
2022-09-13T19:11:45.323Z,3.92
2022-09-13T19:13:46.401Z,4.18
2022-09-13T19:15:48.484Z,4.07
2022-09-13T19:17:50.129Z,3.90
2022-09-13T19:19:52.876Z,3.80
2022-09-13T19:21:54.358Z,3.85
2022-09-13T19:23:59.828Z,3.60
2022-09-13T19:26:39.509Z,3.65
2022-09-13T19:28:48.024Z,3.10
2022-09-13T19:30:50.795Z,3.03
2022-09-13T19:32:52.595Z,3.53
2022-09-13T19:34:54.287Z,3.13
2022-09-13T19:36:58.314Z,3.00
2022-09-13T19:39:00.411Z,3.30
2022-09-13T19:41:04.897Z,3.65
2022-09-13T19:43:06.668Z,3.35
2022-09-13T19:45:08.537Z,3.08
2022-09-13T19:48:12.612Z,3.25
2022-09-13T19:49:32.342Z,3.60
2022-09-13T19:51:36.849Z,3.40
2022-09-13T19:53:56.578Z,3.78
2022-09-13T19:55:59.394Z,3.25
2022-09-13T19:58:02.695Z,3.00
2022-09-13T20:00:04.838Z,4.03
2022-09-13T20:02:11.303Z,3.30
2022-09-13T20:04:15.253Z,3.17
2022-09-13T20:06:16.962Z,3.20
2022-09-13T20:08:22.959Z,3.47
2022-09-13T20:10:24.449Z,3.20
2022-09-13T20:12:26.059Z,2.97
2022-09-13T20:14:28.040Z,3.60
2022-09-13T20:16:34.334Z,3.22
2022-09-13T20:18:36.082Z,2.90
2022-09-13T20:20:37.726Z,3.30
2022-09-13T20:22:39.901Z,3.05
2022-09-13T20:24:41.535Z,3.40
2022-09-13T20:26:53.351Z,3.13
2022-09-13T20:29:00.296Z,3.17
2022-09-13T20:31:02.136Z,3.40
2022-09-13T20:33:04.837Z,3.53
2022-09-13T20:35:09.715Z,3.00
2022-09-13T20:37:11.593Z,3.25
2022-09-13T20:39:17.018Z,3.50
2022-09-13T20:41:19.405Z,3.60
2022-09-13T20:43:21.099Z,3.70
2022-09-13T20:45:22.916Z,3.60
2022-09-13T20:47:24.737Z,3.40
2022-09-13T20:49:26.492Z,3.55
2022-09-13T20:51:34.516Z,3.45
2022-09-13T20:53:37.754Z,3.25
2022-09-13T20:55:40.545Z,3.40
2022-09-13T20:57:42.975Z,3.20
2022-09-13T20:59:45.463Z,3.20
2022-09-13T21:01:47.135Z,3.30
2022-09-13T21:03:51.285Z,3.17
2022-09-13T21:05:53.002Z,3.30
2022-09-13T21:08:13.537Z,3.47
2022-09-13T21:10:15.160Z,3.40
2022-09-13T21:12:16.804Z,3.00
2022-09-13T21:14:21.137Z,3.50
2022-09-13T21:16:25.015Z,3.40
2022-09-13T21:18:26.639Z,3.45
2022-09-13T21:20:28.167Z,3.35
2022-09-13T21:22:33.101Z,3.47
2022-09-13T21:24:34.742Z,3.60
2022-09-13T21:26:37.252Z,3.90
2022-09-13T21:28:41.096Z,3.67
2022-09-13T21:30:42.830Z,3.83
2022-09-13T21:32:47.402Z,3.60
2022-09-13T21:34:49.012Z,3.53
2022-09-13T21:36:50.861Z,3.65
2022-09-13T21:38:54.406Z,3.40
2022-09-13T21:41:05.681Z,3.63
2022-09-13T21:43:07.811Z,3.47
2022-09-13T21:45:09.995Z,4.00
2022-09-13T21:47:11.639Z,4.05
2022-09-13T21:49:13.231Z,3.70
2022-09-13T21:51:18.070Z,3.97
2022-09-13T21:53:19.874Z,3.50
2022-09-13T21:55:21.418Z,3.53
2022-09-13T21:57:23.035Z,5.78
2022-09-13T21:59:24.544Z,5.63
2022-09-13T22:01:31.891Z,5.68
2022-09-13T22:03:38.499Z,5.55
2022-09-13T22:05:39.963Z,5.15
2022-09-13T22:07:41.602Z,4.72
2022-09-13T22:09:45.232Z,4.30
2022-09-13T22:11:52.231Z,3.83
2022-09-13T22:13:54.756Z,3.65
2022-09-13T22:15:56.399Z,3.88
2022-09-13T22:17:58.075Z,3.38
2022-09-13T22:19:59.722Z,3.28
2022-09-13T22:22:01.337Z,3.05
2022-09-13T22:24:07.726Z,3.10
2022-09-13T22:26:12.645Z,3.10
2022-09-13T22:28:14.406Z,3.13
2022-09-13T22:30:15.944Z,3.05
2022-09-13T22:32:21.393Z,3.38
2022-09-13T22:34:25.947Z,3.00
2022-09-13T22:36:28.170Z,3.08
2022-09-13T22:38:30.530Z,2.95
2022-09-13T22:40:36.378Z,3.33
2022-09-13T22:42:41.429Z,3.65
2022-09-13T22:44:43.191Z,3.60
2022-09-13T22:46:46.110Z,3.35
2022-09-13T22:48:48.572Z,3.63
2022-09-13T22:50:53.614Z,3.60
2022-09-13T22:52:55.525Z,3.47
2022-09-13T22:54:57.048Z,3.53
2022-09-13T22:56:58.525Z,3.45
2022-09-13T22:59:07.762Z,3.38
2022-09-13T23:01:16.215Z,3.50
2022-09-13T23:03:17.939Z,3.28
2022-09-13T23:05:19.639Z,3.28
2022-09-13T23:07:23.572Z,3.28
2022-09-13T23:09:25.210Z,3.53
2022-09-13T23:11:32.177Z,3.45
2022-09-13T23:13:33.834Z,3.55
2022-09-13T23:15:35.363Z,3.88
2022-09-13T23:17:36.781Z,3.60
2022-09-13T23:19:38.433Z,3.45
2022-09-13T23:21:41.591Z,3.55
2022-09-13T23:23:43.235Z,3.33
2022-09-13T23:25:44.694Z,3.70
2022-09-13T23:27:46.450Z,3.60
2022-09-13T23:29:49.500Z,3.55
2022-09-13T23:31:51.941Z,3.88
2022-09-13T23:33:57.961Z,3.72
2022-09-13T23:35:59.505Z,3.42
2022-09-13T23:38:01.005Z,3.50
2022-09-13T23:40:03.314Z,3.63
2022-09-13T23:42:05.844Z,3.60
2022-09-13T23:44:14.062Z,3.67
2022-09-13T23:46:16.072Z,3.60
2022-09-13T23:48:17.536Z,3.35
2022-09-13T23:50:19.172Z,3.35
2022-09-13T23:52:20.888Z,3.63
2022-09-13T23:54:22.653Z,3.78
2022-09-13T23:56:30.155Z,3.35
2022-09-13T23:58:32.098Z,3.42
